Time;durP1;ratioP1;P1;durP2;ratioP2;P2;SDS_P1;SDS_P2;PMS_P1;PMS_P2;Temp;Humidity;BMP_temperature;BMP_pressure;BME280_temperature;BME280_humidity;BME280_pressure;Samples;Min_cycle;Max_cycle;Signal;HPM_P1;HPM_P2
2022/07/21 00:02:01;;;;;;;;;;;;;;;20.12;100.00;101736.38;5052377;28;19913;-58
2022/07/21 00:04:26;;;;;;;;;;;;;;;20.13;100.00;101735.41;5052273;28;20011;-58
2022/07/21 00:06:51;;;;;;;;;;;;;;;20.13;100.00;101721.13;5034525;28;19970;-58
2022/07/21 00:09:17;;;;;;;;;;;;;;;20.11;100.00;101725.75;5057372;28;19982;-58
2022/07/21 00:11:42;;;;;;;;;;;;;;;20.11;100.00;101721.22;5054522;28;19959;-58
2022/07/21 00:14:09;;;;;;;;;;;;;;;20.11;100.00;101712.28;5072118;28;19912;-58
2022/07/21 00:16:34;;;;;;;;;;;;;;;20.10;100.00;101711.44;5070471;28;19952;-58
2022/07/21 00:19:00;;;;;;;;;;;;;;;20.10;100.00;101718.63;5053294;28;19944;-59
2022/07/21 00:21:26;;;;;;;;;;;;;;;20.05;100.00;101712.72;5052183;28;19959;-59
2022/07/21 00:23:51;;;;;;;;;;;;;;;20.07;100.00;101705.41;5052275;28;19913;-59
2022/07/21 00:26:16;;;;;;;;;;;;;;;20.01;100.00;101708.53;5051938;28;20436;-59
2022/07/21 00:28:42;;;;;;;;;;;;;;;20.00;100.00;101710.38;5052963;28;19925;-59
2022/07/21 00:31:07;;;;;;;;;;;;;;;19.99;100.00;101714.03;5068645;28;19927;-59
2022/07/21 00:33:32;;;;;;;;;;;;;;;20.02;100.00;101727.25;5071963;28;19916;-58
2022/07/21 00:35:57;;;;;;;;;;;;;;;19.98;100.00;101723.06;5071919;28;20419;-57
2022/07/21 00:38:23;;;;;;;;;;;;;;;19.94;100.00;101725.09;5070148;28;20287;-58
2022/07/21 00:40:48;;;;;;;;;;;;;;;19.91;100.00;101728.03;5070265;28;20301;-56
2022/07/21 00:43:13;;;;;;;;;;;;;;;19.89;100.00;101721.88;5071800;28;20009;-57
2022/07/21 00:45:38;;;;;;;;;;;;;;;19.89;100.00;101708.44;5071819;28;19952;-57
2022/07/21 00:48:04;;;;;;;;;;;;;;;19.89;100.00;101705.75;5068860;28;19928;-57
2022/07/21 00:50:29;;;;;;;;;;;;;;;19.89;100.00;101711.13;5052277;28;19927;-57
2022/07/21 00:52:55;;;;;;;;;;;;;;;19.88;100.00;101708.56;5072607;28;19995;-57
2022/07/21 00:55:22;;;;;;;;;;;;;;;19.86;100.00;101714.03;5074284;28;19921;-56
2022/07/21 00:57:48;;;;;;;;;;;;;;;19.81;100.00;101713.47;5074291;28;20002;-57
2022/07/21 01:00:19;;;;;;;;;;;;;;;19.81;100.00;101716.16;5054771;28;20457;-58
2022/07/21 01:02:45;;;;;;;;;;;;;;;19.83;100.00;101716.94;5054776;28;19917;-58
2022/07/21 01:05:14;;;;;;;;;;;;;;;19.84;100.00;101713.28;5054274;28;19924;-58
2022/07/21 01:07:40;;;;;;;;;;;;;;;19.89;100.00;101712.97;5054282;28;20291;-57
2022/07/21 01:10:06;;;;;;;;;;;;;;;19.89;100.00;101703.06;5055421;28;20011;-57
2022/07/21 01:12:31;;;;;;;;;;;;;;;19.94;100.00;101705.44;5068807;28;20011;-57
2022/07/21 01:14:57;;;;;;;;;;;;;;;19.95;100.00;101709.84;5074158;28;19972;-58
2022/07/21 01:17:22;;;;;;;;;;;;;;;19.94;100.00;101703.59;5074218;28;19923;-57
2022/07/21 01:19:47;;;;;;;;;;;;;;;19.94;100.00;101703.59;5072403;28;19916;-57
2022/07/21 01:22:13;;;;;;;;;;;;;;;19.90;100.00;101704.78;5072196;28;19921;-58
2022/07/21 01:24:38;;;;;;;;;;;;;;;19.88;100.00;101703.19;5073984;28;20371;-57
2022/07/21 01:27:03;;;;;;;;;;;;;;;19.84;100.00;101705.22;5056167;28;19916;-57
2022/07/21 01:29:29;;;;;;;;;;;;;;;19.84;100.00;101693.63;5074126;28;20057;-57
2022/07/21 01:31:54;;;;;;;;;;;;;;;19.83;100.00;101691.91;5068329;28;20409;-57
2022/07/21 01:34:19;;;;;;;;;;;;;;;19.81;100.00;101698.19;5053920;28;20382;-58
2022/07/21 01:36:45;;;;;;;;;;;;;;;19.80;100.00;101685.72;5053816;28;19912;-57
2022/07/21 01:41:54;;;;;;;;;;;;;;;19.81;100.00;101678.53;5057389;28;19974;-57
2022/07/21 01:44:19;;;;;;;;;;;;;;;19.86;100.00;101680.91;5053731;28;20011;-56
2022/07/21 01:46:46;;;;;;;;;;;;;;;19.88;100.00;101679.84;5053493;28;19920;-57
2022/07/21 01:49:12;;;;;;;;;;;;;;;19.88;100.00;101687.06;5035659;28;20047;-56
2022/07/21 01:51:38;;;;;;;;;;;;;;;19.89;100.00;101684.25;4992901;28;1771393;-57
2022/07/21 01:54:04;;;;;;;;;;;;;;;19.88;100.00;101681.69;5053583;28;20019;-58
2022/07/21 01:56:29;;;;;;;;;;;;;;;19.87;100.00;101683.50;5054613;28;19917;-58
2022/07/21 01:58:56;;;;;;;;;;;;;;;19.86;100.00;101686.28;5054507;28;19919;-58
2022/07/21 02:01:22;;;;;;;;;;;;;;;19.85;100.00;101676.50;5036764;28;20008;-57
2022/07/21 02:03:47;;;;;;;;;;;;;;;19.87;100.00;101675.41;5055281;28;20011;-56
2022/07/21 02:06:13;;;;;;;;;;;;;;;19.85;100.00;101671.13;5059935;28;19999;-56
2022/07/21 02:08:38;;;;;;;;;;;;;;;19.86;100.00;101668.34;5074575;28;20387;-57
2022/07/21 02:11:04;;;;;;;;;;;;;;;19.87;100.00;101659.28;5074635;28;20002;-58
2022/07/21 02:13:30;;;;;;;;;;;;;;;19.86;100.00;101654.91;5062214;28;19917;-58
2022/07/21 02:15:55;;;;;;;;;;;;;;;19.86;100.00;101654.91;5054297;28;19929;-58
2022/07/21 02:18:20;;;;;;;;;;;;;;;19.89;100.00;101661.91;5054324;28;19932;-58
2022/07/21 02:20:47;;;;;;;;;;;;;;;19.88;100.00;101676.31;5054371;28;19917;-58
2022/07/21 02:23:13;;;;;;;;;;;;;;;19.85;100.00;101681.88;5040159;28;19924;-58
2022/07/21 02:25:38;;;;;;;;;;;;;;;19.83;100.00;101670.41;5055168;28;19974;-58
2022/07/21 02:28:03;;;;;;;;;;;;;;;19.77;100.00;101661.75;5072459;28;19916;-58
2022/07/21 02:30:29;;;;;;;;;;;;;;;19.81;100.00;101660.56;5072798;28;20318;-58
2022/07/21 02:32:54;;;;;;;;;;;;;;;19.81;100.00;101662.41;5053377;28;19924;-58
2022/07/21 02:35:19;;;;;;;;;;;;;;;19.78;100.00;101665.31;5020627;28;19924;-58
2022/07/21 02:37:44;;;;;;;;;;;;;;;19.82;100.00;101664.13;5054022;28;20156;-58
2022/07/21 02:40:10;;;;;;;;;;;;;;;19.84;100.00;101664.91;5053198;28;19917;-58
2022/07/21 02:42:37;;;;;;;;;;;;;;;19.85;100.00;101666.63;5054200;28;20419;-59
2022/07/21 02:45:03;;;;;;;;;;;;;;;19.84;100.00;101661.38;5051447;28;19916;-58
2022/07/21 02:47:28;;;;;;;;;;;;;;;19.79;100.00;101640.16;5045104;28;20146;-59
2022/07/21 02:49:53;;;;;;;;;;;;;;;19.76;100.00;101638.53;5043897;28;19924;-59
2022/07/21 02:52:18;;;;;;;;;;;;;;;19.76;100.00;101645.75;5033595;28;19932;-58
2022/07/21 02:54:44;;;;;;;;;;;;;;;19.77;100.00;101640.28;5054894;28;19925;-57
2022/07/21 02:57:09;;;;;;;;;;;;;;;19.80;100.00;101650.78;5055596;28;19924;-58
2022/07/21 02:59:34;;;;;;;;;;;;;;;19.80;100.00;101628.44;5035633;28;19924;-58
2022/07/21 03:01:59;;;;;;;;;;;;;;;19.79;100.00;101632.94;5053460;28;19923;-59
2022/07/21 03:04:25;;;;;;;;;;;;;;;19.77;100.00;101637.59;5053441;28;19921;-59
2022/07/21 03:06:50;;;;;;;;;;;;;;;19.74;100.00;101635.09;5068131;28;19960;-57
2022/07/21 03:09:15;;;;;;;;;;;;;;;19.73;100.00;101643.28;5072707;28;20384;-57
2022/07/21 03:11:40;;;;;;;;;;;;;;;19.74;100.00;101645.84;5073442;28;19962;-57
2022/07/21 03:14:06;;;;;;;;;;;;;;;19.77;100.00;101642.06;5072413;28;19971;-57
2022/07/21 03:16:31;;;;;;;;;;;;;;;19.75;100.00;101636.81;5053679;28;20380;-57
2022/07/21 03:18:56;;;;;;;;;;;;;;;19.77;100.00;101634.91;5035473;28;19966;-57
2022/07/21 03:21:21;;;;;;;;;;;;;;;19.79;100.00;101640.16;5052651;28;19999;-57
2022/07/21 03:23:47;;;;;;;;;;;;;;;19.79;100.00;101635.63;5052989;28;19927;-58
2022/07/21 03:26:12;;;;;;;;;;;;;;;19.81;100.00;101641.75;5054350;28;19921;-58
2022/07/21 03:28:38;;;;;;;;;;;;;;;19.83;100.00;101641.69;5053330;28;20317;-58
2022/07/21 03:31:04;;;;;;;;;;;;;;;19.81;100.00;101641.75;5018678;28;20407;-57
2022/07/21 03:33:29;;;;;;;;;;;;;;;19.77;100.00;101642.06;5053164;28;19917;-57
2022/07/21 03:35:56;;;;;;;;;;;;;;;19.75;100.00;101644.88;5062127;28;19925;-57
2022/07/21 03:38:21;;;;;;;;;;;;;;;19.75;100.00;101641.34;5070819;28;19920;-58
2022/07/21 03:40:46;;;;;;;;;;;;;;;19.72;100.00;101638.84;5072598;28;20028;-57
2022/07/21 03:43:11;;;;;;;;;;;;;;;19.72;100.00;101647.78;5072637;28;19966;-57
2022/07/21 03:45:37;;;;;;;;;;;;;;;19.72;100.00;101630.78;5053487;28;19921;-57
2022/07/21 03:48:03;;;;;;;;;;;;;;;19.72;100.00;101629.00;5071097;28;19956;-57
2022/07/21 03:50:29;;;;;;;;;;;;;;;19.76;100.00;101626.94;5088009;28;19925;-57
2022/07/21 03:52:54;;;;;;;;;;;;;;;19.77;100.00;101624.16;5070412;28;19924;-57
2022/07/21 03:55:20;;;;;;;;;;;;;;;19.80;100.00;101633.81;5034703;28;19931;-57
2022/07/21 03:57:50;;;;;;;;;;;;;;;19.78;100.00;101635.75;5053571;28;19974;-58
2022/07/21 04:00:21;;;;;;;;;;;;;;;19.73;100.00;101649.53;5032338;28;19964;-57
2022/07/21 04:02:47;;;;;;;;;;;;;;;19.71;100.00;101645.22;5060925;28;19913;-57
2022/07/21 04:05:13;;;;;;;;;;;;;;;19.74;100.00;101650.38;5052758;28;19981;-56
2022/07/21 04:07:39;;;;;;;;;;;;;;;19.76;100.00;101648.44;5052348;28;19956;-58
2022/07/21 04:10:05;;;;;;;;;;;;;;;19.77;100.00;101642.06;5053330;28;19944;-56
2022/07/21 04:12:30;;;;;;;;;;;;;;;19.76;100.00;101648.44;5053272;28;19960;-57
2022/07/21 04:14:55;;;;;;;;;;;;;;;19.75;100.00;101650.25;5052155;28;20035;-57
2022/07/21 04:17:21;;;;;;;;;;;;;;;19.72;100.00;101652.28;5052187;28;19924;-58
2022/07/21 04:19:46;;;;;;;;;;;;;;;19.72;100.00;101650.50;5053088;28;19920;-58
2022/07/21 04:22:11;;;;;;;;;;;;;;;19.72;100.00;101654.97;5042526;28;20355;-57
2022/07/21 04:24:37;;;;;;;;;;;;;;;19.70;100.00;101651.56;5087909;28;19927;-58
2022/07/21 04:27:02;;;;;;;;;;;;;;;19.69;100.00;101648.00;5072043;28;19916;-58
2022/07/21 04:29:28;;;;;;;;;;;;;;;19.70;100.00;101652.41;5069328;28;19917;-58
2022/07/21 04:31:54;;;;;;;;;;;;;;;19.71;100.00;101654.13;5070199;28;19952;-58
2022/07/21 04:34:19;;;;;;;;;;;;;;;19.69;100.00;101657.91;5071735;28;20314;-58
2022/07/21 04:36:44;;;;;;;;;;;;;;;19.68;100.00;101661.53;5071981;28;20291;-58
2022/07/21 04:39:09;;;;;;;;;;;;;;;19.69;100.00;101655.22;5071971;28;20253;-58
2022/07/21 04:41:34;;;;;;;;;;;;;;;19.63;100.00;101653.84;5056009;28;19917;-59
2022/07/21 04:44:00;;;;;;;;;;;;;;;19.59;100.00;101660.38;5055340;28;20008;-58
2022/07/21 04:46:26;;;;;;;;;;;;;;;19.57;100.00;101654.25;5051908;28;19917;-58
2022/07/21 04:48:51;;;;;;;;;;;;;;;19.53;100.00;101658.97;5051975;28;19916;-59
2022/07/21 04:51:16;;;;;;;;;;;;;;;19.52;100.00;101653.72;5085205;28;19924;-56
2022/07/21 04:53:41;;;;;;;;;;;;;;;19.53;100.00;101661.66;5070244;28;19917;-57
2022/07/21 04:56:07;;;;;;;;;;;;;;;19.56;100.00;101663.28;5071928;28;19929;-58
2022/07/21 04:58:32;;;;;;;;;;;;;;;19.55;100.00;101662.41;5071893;28;19913;-57
2022/07/21 05:00:57;;;;;;;;;;;;;;;19.59;100.00;101663.03;5053427;28;19921;-58
2022/07/21 05:03:22;;;;;;;;;;;;;;;19.59;100.00;101665.75;5050700;28;19921;-57
2022/07/21 05:05:48;;;;;;;;;;;;;;;19.57;100.00;101667.69;5071635;28;20360;-57
2022/07/21 05:08:13;;;;;;;;;;;;;;;19.56;100.00;101653.38;5066570;28;20430;-58
2022/07/21 05:10:38;;;;;;;;;;;;;;;19.61;100.00;101663.81;5033911;28;20656;-57
2022/07/21 05:13:04;;;;;;;;;;;;;;;19.55;100.00;101646.28;5051077;28;19916;-58
2022/07/21 05:15:29;;;;;;;;;;;;;;;19.59;100.00;101653.19;5053227;28;19925;-58
2022/07/21 05:17:54;;;;;;;;;;;;;;;19.62;100.00;101652.09;5050823;28;19924;-57
2022/07/21 05:20:19;;;;;;;;;;;;;;;19.62;100.00;101657.47;5035612;28;19928;-58
2022/07/21 05:22:44;;;;;;;;;;;;;;;19.62;100.00;101654.78;5052808;28;20007;-58
2022/07/21 05:25:10;;;;;;;;;;;;;;;19.54;100.00;101655.34;5055111;28;19956;-58
2022/07/21 05:27:35;;;;;;;;;;;;;;;19.57;100.00;101649.72;5051827;28;19917;-58
2022/07/21 05:30:00;;;;;;;;;;;;;;;19.63;100.00;101654.69;5050180;28;19917;-58
2022/07/21 05:32:26;;;;;;;;;;;;;;;19.54;100.00;101654.44;5051141;28;19999;-58
2022/07/21 05:34:51;;;;;;;;;;;;;;;19.45;100.00;101647.91;5053058;28;20395;-58
2022/07/21 05:37:16;;;;;;;;;;;;;;;19.46;100.00;101655.88;5051342;28;19963;-58
2022/07/21 05:39:41;;;;;;;;;;;;;;;19.50;100.00;101648.44;5071145;28;19916;-58
2022/07/21 05:42:06;;;;;;;;;;;;;;;19.54;100.00;101657.13;5075026;28;19939;-58
2022/07/21 05:44:32;;;;;;;;;;;;;;;19.49;100.00;101654.78;5061844;28;19917;-58
2022/07/21 05:46:57;;;;;;;;;;;;;;;19.44;100.00;101654.25;5049610;28;19921;-58
2022/07/21 05:49:22;;;;;;;;;;;;;;;19.44;100.00;101652.41;5066115;28;19967;-58
2022/07/21 05:51:48;;;;;;;;;;;;;;;19.44;100.00;101659.63;5053091;28;19939;-58
2022/07/21 05:54:13;;;;;;;;;;;;;;;19.45;100.00;101656.81;5054399;28;20007;-58
2022/07/21 05:56:38;;;;;;;;;;;;;;;19.41;100.00;101651.75;5080101;28;19951;-57
2022/07/21 05:59:04;;;;;;;;;;;;;;;19.39;100.00;101656.41;5056816;28;20395;-57
2022/07/21 06:01:29;;;;;;;;;;;;;;;19.39;100.00;101662.63;5055183;28;19913;-57
2022/07/21 06:03:54;;;;;;;;;;;;;;;19.33;100.00;101665.72;5053453;28;19917;-57
2022/07/21 06:06:19;;;;;;;;;;;;;;;19.13;100.00;101659.91;5058659;28;19966;-57
2022/07/21 06:08:46;;;;;;;;;;;;;;;19.09;100.00;101665.56;5058032;28;19999;-59
2022/07/21 06:11:12;;;;;;;;;;;;;;;19.03;100.00;101663.31;5051383;28;19917;-59
2022/07/21 06:13:38;;;;;;;;;;;;;;;18.95;100.00;101664.69;5051644;28;20396;-58
2022/07/21 06:16:04;;;;;;;;;;;;;;;18.96;100.00;101677.16;5047370;28;20020;-58
2022/07/21 06:18:29;;;;;;;;;;;;;;;18.94;100.00;101671.03;5054629;28;20273;-58
2022/07/21 06:20:55;;;;;;;;;;;;;;;18.91;100.00;101673.06;5054183;28;19952;-58
2022/07/21 06:23:20;;;;;;;;;;;;;;;18.89;100.00;101675.81;5053893;28;20287;-58
2022/07/21 06:25:45;;;;;;;;;;;;;;;18.90;100.00;101677.56;5054230;28;19944;-58
2022/07/21 06:28:11;;;;;;;;;;;;;;;18.85;100.00;101674.31;5054290;28;19927;-58
2022/07/21 06:30:36;;;;;;;;;;;;;;;18.85;100.00;101671.63;5050000;28;19967;-58
2022/07/21 06:33:01;;;;;;;;;;;;;;;18.85;100.00;101674.31;5054011;28;19912;-58
2022/07/21 06:35:27;;;;;;;;;;;;;;;18.88;100.00;101668.72;5036225;28;19943;-58
2022/07/21 06:37:52;;;;;;;;;;;;;;;18.84;100.00;101678.78;5036680;28;19970;-57
2022/07/21 06:40:17;;;;;;;;;;;;;;;18.83;100.00;101673.53;5051981;28;19928;-57
2022/07/21 06:42:42;;;;;;;;;;;;;;;18.77;100.00;101666.75;5053697;28;19917;-58
2022/07/21 06:45:08;;;;;;;;;;;;;;;18.70;100.00;101676.16;5054098;28;19916;-59
2022/07/21 06:47:33;;;;;;;;;;;;;;;18.64;100.00;101679.25;5053967;28;19928;-58
2022/07/21 06:50:04;;;;;;;;;;;;;;;18.58;100.00;101683.22;5052297;28;19943;-58
2022/07/21 06:52:30;;;;;;;;;;;;;;;18.51;100.00;101685.41;5053320;28;19925;-56
2022/07/21 06:54:55;;;;;;;;;;;;;;;18.50;100.00;101686.41;5052989;28;19932;-57
2022/07/21 06:57:21;;;;;;;;;;;;;;;18.46;100.00;101692.91;5053244;28;19971;-57
2022/07/21 06:59:46;;;;;;;;;;;;;;;18.44;100.00;101694.84;5062370;28;19921;-57
2022/07/21 07:02:11;;;;;;;;;;;;;;;18.44;100.00;101697.50;5053103;28;19928;-58
2022/07/21 07:04:37;;;;;;;;;;;;;;;18.42;100.00;101706.63;5058166;28;19924;-57
2022/07/21 07:07:02;;;;;;;;;;;;;;;18.42;100.00;101706.63;5053497;28;19931;-59
2022/07/21 07:09:28;;;;;;;;;;;;;;;18.37;100.00;101706.06;5052860;28;19958;-58
2022/07/21 07:11:55;;;;;;;;;;;;;;;18.37;100.00;101723.00;5052857;28;19921;-58
2022/07/21 07:14:20;;;;;;;;;;;;;;;18.30;100.00;101710.91;5033937;28;19924;-58
2022/07/21 07:16:46;;;;;;;;;;;;;;;18.24;100.00;101714.88;5051982;28;20280;-58
2022/07/21 07:19:11;;;;;;;;;;;;;;;18.25;100.00;101710.34;5061036;28;19962;-57
2022/07/21 07:21:36;;;;;;;;;;;;;;;18.22;100.00;101719.44;5055386;28;19920;-59
2022/07/21 07:24:02;;;;;;;;;;;;;;;18.24;100.00;101714.88;5069442;28;19921;-59
2022/07/21 07:26:28;;;;;;;;;;;;;;;18.21;100.00;101715.06;5053826;28;19921;-57
2022/07/21 07:28:53;;;;;;;;;;;;;;;18.20;100.00;101715.16;5053375;28;20011;-57
2022/07/21 07:31:18;;;;;;;;;;;;;;;18.07;100.00;101709.69;5052489;28;19912;-59
2022/07/21 07:33:43;;;;;;;;;;;;;;;17.96;100.00;101719.28;5052274;28;19916;-60
2022/07/21 07:36:11;;;;;;;;;;;;;;;17.94;100.00;101712.28;5054028;28;19916;-59
2022/07/21 07:38:37;;;;;;;;;;;;;;;17.84;100.00;101717.34;5035309;28;19971;-60
2022/07/21 07:41:02;;;;;;;;;;;;;;;17.74;100.00;101718.88;5053206;28;19928;-59
2022/07/21 07:43:27;;;;;;;;;;;;;;;17.72;100.00;101713.56;5055079;28;20042;-60
2022/07/21 07:45:53;;;;;;;;;;;;;;;17.69;100.00;101721.81;5067820;28;19916;-59
2022/07/21 07:48:18;;;;;;;;;;;;;;;17.63;100.00;101720.34;5052405;28;20391;-60
2022/07/21 07:50:43;;;;;;;;;;;;;;;17.61;100.00;101724.97;5051968;28;20265;-59
2022/07/21 07:53:08;;;;;;;;;;;;;;;17.60;100.00;101725.91;5051654;28;20296;-60
2022/07/21 07:55:33;;;;;;;;;;;;;;;17.66;100.00;101721.97;5061793;28;19960;-60
2022/07/21 07:57:59;;;;;;;;;;;;;;;17.74;100.00;101724.22;5062504;28;19981;-60
2022/07/21 08:00:24;;;;;;;;;;;;;;;17.72;100.00;101720.75;5073538;28;19924;-60
2022/07/21 08:02:49;;;;;;;;;;;;;;;17.67;100.00;101735.31;5046462;28;20376;-59
2022/07/21 08:05:15;;;;;;;;;;;;;;;17.69;100.00;101722.66;5051002;28;20431;-60
2022/07/21 08:07:40;;;;;;;;;;;;;;;17.79;100.00;101722.13;5051731;28;20349;-60
2022/07/21 08:10:09;;;;;;;;;;;;;;;17.84;100.00;101730.75;5053063;28;19916;-59
2022/07/21 08:12:35;;;;;;;;;;;;;;;17.83;100.00;101723.66;5051859;28;19912;-56
2022/07/21 08:15:00;;;;;;;;;;;;;;;17.82;100.00;101724.59;5052453;28;19928;-61
2022/07/21 08:17:25;;;;;;;;;;;;;;;17.87;100.00;101722.50;5050703;28;19970;-56
2022/07/21 08:19:51;;;;;;;;;;;;;;;17.95;100.00;101735.47;5051608;28;19917;-57
2022/07/21 08:22:16;;;;;;;;;;;;;;;17.93;100.00;101731.97;5051522;28;19974;-61
2022/07/21 08:24:41;;;;;;;;;;;;;;;17.88;100.00;101734.06;5051744;28;20070;-60
2022/07/21 08:27:07;;;;;;;;;;;;;;;17.88;100.00;101732.28;5052737;28;20016;-60
2022/07/21 08:29:33;;;;;;;;;;;;;;;17.84;100.00;101731.59;5068954;28;19913;-60
2022/07/21 08:31:58;;;;;;;;;;;;;;;17.89;100.00;101735.78;5044847;28;19986;-60
2022/07/21 08:34:24;;;;;;;;;;;;;;;17.88;100.00;101744.78;5050885;28;20410;-60
2022/07/21 08:36:49;;;;;;;;;;;;;;;17.83;100.00;101739.72;5050008;28;19917;-60
2022/07/21 08:39:14;;;;;;;;;;;;;;;17.79;100.00;101744.41;5046986;28;19921;-60
2022/07/21 08:41:39;;;;;;;;;;;;;;;17.78;100.00;101748.03;5055401;28;19923;-59
2022/07/21 08:44:05;;;;;;;;;;;;;;;17.74;100.00;101751.88;5067840;28;20390;-59
2022/07/21 08:46:31;;;;;;;;;;;;;;;17.66;100.00;101759.47;5051344;28;19913;-59
2022/07/21 08:48:57;;;;;;;;;;;;;;;17.57;100.00;101744.84;5051152;28;19929;-59
2022/07/21 08:51:22;;;;;;;;;;;;;;;17.69;100.00;101751.28;5051245;28;20450;-59
2022/07/21 08:53:48;;;;;;;;;;;;;;;17.83;100.00;101756.66;5051024;28;19925;-60
2022/07/21 08:56:13;;;;;;;;;;;;;;;18.16;100.00;101758.25;5051328;28;19979;-59
2022/07/21 08:58:39;;;;;;;;;;;;;;;18.37;100.00;101757.00;5051445;28;20004;-59
2022/07/21 09:01:04;;;;;;;;;;;;;;;18.42;100.00;101752.22;5051420;28;19913;-58
2022/07/21 09:03:29;;;;;;;;;;;;;;;18.45;100.00;101750.19;5051083;28;20403;-59
2022/07/21 09:06:11;;;;;;;;;;;;;;;18.53;100.00;101752.38;5051318;28;20019;-60
2022/07/21 09:08:36;;;;;;;;;;;;;;;18.67;100.00;101748.81;5052414;28;19924;-58
2022/07/21 09:11:08;;;;;;;;;;;;;;;18.63;100.00;101755.31;5051135;28;19913;-58
2022/07/21 09:13:33;;;;;;;;;;;;;;;18.54;100.00;101750.56;5045570;28;20388;-59
2022/07/21 09:15:59;;;;;;;;;;;;;;;18.47;100.00;101752.78;5055769;28;19932;-58
2022/07/21 09:18:24;;;;;;;;;;;;;;;18.34;100.00;101766.09;5025712;28;19925;-59
2022/07/21 09:20:51;;;;;;;;;;;;;;;18.33;100.00;101759.84;5062540;28;19920;-59
2022/07/21 09:23:17;;;;;;;;;;;;;;;18.34;100.00;101771.47;5048725;28;19924;-59
2022/07/21 09:25:44;;;;;;;;;;;;;;;18.40;100.00;101773.75;5052213;28;19917;-59
2022/07/21 09:28:09;;;;;;;;;;;;;;;18.47;100.00;101784.97;5042014;28;20262;-59
2022/07/21 09:30:51;;;;;;;;;;;;;;;18.42;100.00;101782.56;5056579;28;19924;-59
2022/07/21 09:33:21;;;;;;;;;;;;;;;18.27;100.00;101776.31;5054300;28;19919;-60
2022/07/21 09:36:15;;;;;;;;;;;;;;;18.10;100.00;101785.44;5050502;28;20003;-58
2022/07/21 09:38:51;;;;;;;;;;;;;;;18.05;100.00;101784.00;5041232;28;19917;-58
2022/07/21 09:41:20;;;;;;;;;;;;;;;17.91;100.00;101780.28;5062716;28;20392;-58
2022/07/21 09:43:48;;;;;;;;;;;;;;;17.97;100.00;101790.69;5051471;28;19913;-59
2022/07/21 09:46:17;;;;;;;;;;;;;;;17.93;100.00;101783.78;5051215;28;19917;-59
2022/07/21 09:48:44;;;;;;;;;;;;;;;17.90;100.00;101786.59;5054409;28;19948;-60
2022/07/21 09:51:19;;;;;;;;;;;;;;;17.84;100.00;101787.00;5054338;28;19935;-59
2022/07/21 09:53:48;;;;;;;;;;;;;;;17.70;100.00;101790.50;5067733;28;19929;-60
2022/07/21 09:56:14;;;;;;;;;;;;;;;17.67;100.00;101798.72;5071548;28;19924;-60
2022/07/21 09:58:39;;;;;;;;;;;;;;;17.63;100.00;101787.31;5055050;28;19921;-61
2022/07/21 10:01:05;;;;;;;;;;;;;;;17.62;100.00;101790.97;5062268;28;19978;-61
2022/07/21 10:03:30;;;;;;;;;;;;;;;17.63;100.00;101799.84;5055811;28;19921;-57
2022/07/21 10:05:55;;;;;;;;;;;;;;;17.61;100.00;101797.28;5054083;28;19920;-60
2022/07/21 10:08:20;;;;;;;;;;;;;;;17.63;100.00;101802.53;5062173;28;19920;-59
2022/07/21 10:10:46;;;;;;;;;;;;;;;17.65;100.00;101811.34;5056117;28;19924;-59
2022/07/21 10:13:11;;;;;;;;;;;;;;;17.69;100.00;101805.69;5044357;28;19924;-60
2022/07/21 10:15:36;;;;;;;;;;;;;;;17.68;100.00;101811.16;5069680;28;20379;-60
2022/07/21 10:18:03;;;;;;;;;;;;;;;17.67;100.00;101804.94;5057888;28;19947;-59
2022/07/21 10:20:32;;;;;;;;;;;;;;;17.71;100.00;101808.31;5060448;28;20141;-60
2022/07/21 10:23:09;;;;;;;;;;;;;;;17.78;100.00;101801.63;5054358;28;19912;-60
2022/07/21 10:25:35;;;;;;;;;;;;;;;17.92;100.00;101808.81;5054710;28;19917;-60
2022/07/21 10:28:18;;;;;;;;;;;;;;;18.11;100.00;101805.91;5055581;28;19966;-60
2022/07/21 10:30:44;;;;;;;;;;;;;;;18.36;100.00;101806.22;5055758;28;19968;-59
2022/07/21 10:33:10;;;;;;;;;;;;;;;18.51;100.00;101818.66;5046540;28;19959;-60
2022/07/21 10:35:38;;;;;;;;;;;;;;;18.79;100.00;101812.41;5054016;28;19921;-61
2022/07/21 10:38:04;;;;;;;;;;;;;;;18.87;100.00;101809.22;5053803;28;19917;-60
2022/07/21 10:40:29;;;;;;;;;;;;;;;18.81;100.00;101809.59;5054367;28;19970;-60
2022/07/21 10:43:00;;;;;;;;;;;;;;;18.83;100.00;101805.88;5051705;28;19925;-60
2022/07/21 10:45:39;;;;;;;;;;;;;;;18.91;100.00;101810.78;5048120;28;20311;-60
2022/07/21 10:48:06;;;;;;;;;;;;;;;18.95;100.00;101814.13;5053441;28;19948;-60
2022/07/21 10:50:32;;;;;;;;;;;;;;;18.84;100.00;101812.97;5054775;28;19917;-60
2022/07/21 10:52:57;;;;;;;;;;;;;;;18.76;100.00;101815.28;5068001;28;19929;-60
2022/07/21 10:55:25;;;;;;;;;;;;;;;18.71;100.00;101825.47;5053026;28;19917;-58
2022/07/21 10:58:20;;;;;;;;;;;;;;;18.67;100.00;101823.94;5062238;28;20354;-59
2022/07/21 11:00:47;;;;;;;;;;;;;;;18.66;100.00;101827.56;5039775;28;19917;-59
2022/07/21 11:03:14;;;;;;;;;;;;;;;18.68;100.00;101833.69;5054932;28;19921;-59
2022/07/21 11:06:00;;;;;;;;;;;;;;;18.58;100.00;101829.84;5046376;28;19916;-60
2022/07/21 11:08:30;;;;;;;;;;;;;;;18.43;100.00;101835.25;5040128;28;19923;-59
2022/07/21 11:11:06;;;;;;;;;;;;;;;18.41;100.00;101842.50;5036978;28;20394;-59
2022/07/21 11:13:51;;;;;;;;;;;;;;;18.43;100.00;101847.81;5034314;28;19913;-60
2022/07/21 11:16:16;;;;;;;;;;;;;;;18.41;100.00;101844.34;5032253;28;19917;-60
2022/07/21 11:18:43;;;;;;;;;;;;;;;18.39;100.00;101846.25;5037851;28;20286;-60
2022/07/21 11:21:11;;;;;;;;;;;;;;;18.41;100.00;101855.91;5038818;28;19917;-59
2022/07/21 11:23:43;;;;;;;;;;;;;;;18.41;100.00;101850.56;5037073;28;19997;-59
2022/07/21 11:26:09;;;;;;;;;;;;;;;18.46;100.00;101851.13;5042158;28;19929;-60
2022/07/21 11:28:35;;;;;;;;;;;;;;;18.59;100.00;101858.41;5041183;28;19917;-59
2022/07/21 11:31:06;;;;;;;;;;;;;;;18.50;100.00;101851.81;5047728;28;19917;-59
2022/07/21 11:33:31;;;;;;;;;;;;;;;18.47;100.00;101860.91;5043676;28;20438;-60
2022/07/21 11:35:56;;;;;;;;;;;;;;;18.42;100.00;101865.69;5040844;28;19933;-59
2022/07/21 11:38:22;;;;;;;;;;;;;;;18.35;100.00;101856.31;5038850;28;20016;-60
2022/07/21 11:40:47;;;;;;;;;;;;;;;18.32;100.00;101860.03;5040047;28;20288;-60
2022/07/21 11:43:12;;;;;;;;;;;;;;;18.29;100.00;101865.59;5043677;28;19948;-59
2022/07/21 11:45:37;;;;;;;;;;;;;;;18.20;100.00;101852.75;5036518;28;19934;-59
2022/07/21 11:48:03;;;;;;;;;;;;;;;18.07;100.00;101857.13;5041064;28;19935;-60
2022/07/21 11:50:30;;;;;;;;;;;;;;;18.06;100.00;101860.78;5036396;28;20020;-60
2022/07/21 11:52:56;;;;;;;;;;;;;;;17.90;100.00;101858.94;5036270;28;19929;-59
2022/07/21 11:55:21;;;;;;;;;;;;;;;17.83;100.00;101857.63;5031779;28;19925;-59
2022/07/21 11:57:46;;;;;;;;;;;;;;;17.80;100.00;101865.81;5054358;28;19921;-59
2022/07/21 12:00:12;;;;;;;;;;;;;;;17.77;100.00;101866.00;5052356;28;19916;-59
2022/07/21 12:02:38;;;;;;;;;;;;;;;17.73;100.00;101868.00;5053053;28;19955;-60
2022/07/21 12:05:04;;;;;;;;;;;;;;;17.80;100.00;101861.34;5032208;28;19928;-59
2022/07/21 12:07:42;;;;;;;;;;;;;;;17.76;100.00;101864.28;5055119;28;21290;-60
2022/07/21 12:10:12;;;;;;;;;;;;;;;17.76;100.00;101859.81;5057672;28;19978;-60
2022/07/21 12:12:38;;;;;;;;;;;;;;;17.79;100.00;101872.16;5054630;28;19963;-59
2022/07/21 12:15:16;;;;;;;;;;;;;;;17.80;100.00;101873.84;5052307;28;19927;-60
2022/07/21 12:17:44;;;;;;;;;;;;;;;17.83;100.00;101861.16;5048515;28;19924;-60
2022/07/21 12:20:10;;;;;;;;;;;;;;;17.77;100.00;101866.00;5047574;28;20437;-59
2022/07/21 12:22:44;;;;;;;;;;;;;;;17.80;100.00;101865.81;5048498;28;19921;-59
2022/07/21 12:25:10;;;;;;;;;;;;;;;17.80;100.00;101868.50;5051738;28;19932;-60